Time;durP1;ratioP1;P1;durP2;ratioP2;P2;SDS_P1;SDS_P2;PMS_P1;PMS_P2;Temp;Humidity;BMP_temperature;BMP_pressure;BME280_temperature;BME280_humidity;BME280_pressure;Samples;Min_cycle;Max_cycle;Signal;HPM_P1;HPM_P2
2022/07/29 00:00:26;;;;;;;;;8.75;5.00;;;;;23.72;28.11;101060.00;4999886;28;45416;-55
2022/07/29 00:02:52;;;;;;;;;8.25;8.25;;;;;23.68;28.21;101057.53;5007305;28;46035;-55
2022/07/29 00:05:17;;;;;;;;;8.00;7.00;;;;;23.68;28.30;101064.72;4998640;28;45225;-55
2022/07/29 00:07:42;;;;;;;;;7.00;7.00;;;;;23.66;28.17;101064.81;5000078;28;45159;-54
2022/07/29 00:10:08;;;;;;;;;10.00;6.25;;;;;23.63;28.21;101067.69;4999970;28;45234;-55
2022/07/29 00:12:33;;;;;;;;;10.00;9.00;;;;;23.61;28.42;101047.28;5001349;28;46171;-54
2022/07/29 00:14:59;;;;;;;;;7.25;7.25;;;;;23.57;28.48;101057.38;5002056;28;45356;-55
2022/07/29 00:17:24;;;;;;;;;10.25;8.00;;;;;23.55;28.53;101048.56;5003447;28;45312;-51
2022/07/29 00:19:50;;;;;;;;;7.25;7.25;;;;;23.51;28.47;101045.19;5003076;28;45360;-53
2022/07/29 00:22:15;;;;;;;;;8.00;6.75;;;;;23.50;28.68;101043.47;5003224;28;46159;-53
2022/07/29 00:24:41;;;;;;;;;7.75;7.00;;;;;23.48;28.56;101037.38;5003234;28;45404;-51
2022/07/29 00:27:06;;;;;;;;;6.25;6.25;;;;;23.46;28.75;101041.97;5003426;28;45280;-52
2022/07/29 00:29:31;;;;;;;;;10.25;8.00;;;;;23.43;28.78;101031.41;5003080;28;45297;-53
2022/07/29 00:31:57;;;;;;;;;5.50;5.25;;;;;23.42;28.62;101028.84;5002946;28;46312;-52
2022/07/29 00:37:06;;;;;;;;;5.50;5.00;;;;;23.35;28.74;101026.53;5003486;28;45411;-52
2022/07/29 00:39:31;;;;;;;;;8.50;6.00;;;;;23.34;28.82;101022.13;5002820;28;45354;-50
2022/07/29 00:41:57;;;;;;;;;5.25;5.25;;;;;23.32;28.95;101021.38;5002840;28;55103;-51
2022/07/29 00:44:22;;;;;;;;;6.00;6.00;;;;;23.30;29.02;101017.94;5002854;28;45312;-53
2022/07/29 00:46:47;;;;;;;;;9.00;8.00;;;;;23.28;28.93;101014.50;5003148;28;45377;-51
2022/07/29 00:49:13;;;;;;;;;8.00;8.00;;;;;23.27;29.18;101014.59;5002989;28;45283;-50
2022/07/29 00:51:39;;;;;;;;;6.00;6.00;;;;;23.21;29.08;101014.00;5020083;28;45383;-53
2022/07/29 00:54:05;;;;;;;;;5.50;4.00;;;;;23.18;29.15;101016.91;5006039;28;45214;-51
2022/07/29 00:56:31;;;;;;;;;6.25;6.25;;;;;23.19;28.73;101015.94;5002989;28;45349;-53
2022/07/29 00:58:57;;;;;;;;;7.00;6.00;;;;;23.15;29.06;101013.53;5002675;28;45252;-52
2022/07/29 01:01:23;;;;;;;;;6.00;6.00;;;;;23.13;29.31;101019.00;5006710;28;45380;-53
2022/07/29 01:03:48;;;;;;;;;6.25;5.50;;;;;23.10;29.18;101013.81;5005817;28;45185;-51
2022/07/29 01:06:16;;;;;;;;;5.75;5.75;;;;;23.07;29.22;101015.81;5002758;28;45229;-53
2022/07/29 01:08:42;;;;;;;;;9.50;8.25;;;;;23.02;29.07;101011.59;5002586;28;45339;-51
2022/07/29 01:11:08;;;;;;;;;8.00;8.00;;;;;22.98;29.40;101004.72;5002466;28;46283;-54
2022/07/29 01:13:33;;;;;;;;;6.75;5.00;;;;;22.96;29.48;101014.66;5002450;28;45321;-52
2022/07/29 01:16:06;;;;;;;;;8.50;7.00;;;;;22.93;29.34;101014.88;5002595;28;45432;-52
2022/07/29 01:18:37;;;;;;;;;6.50;6.50;;;;;22.89;29.68;101027.59;5002523;28;45328;-51
2022/07/29 01:21:35;;;;;;;;;10.00;9.50;;;;;22.85;29.40;101031.38;5001883;28;46352;-52
2022/07/29 01:24:19;;;;;;;;;11.50;10.50;;;;;22.83;29.39;101029.75;5002049;28;45472;-51
2022/07/29 01:27:18;;;;;;;;;10.00;8.00;;;;;22.80;29.45;101029.97;5002197;28;45439;-49
2022/07/29 01:29:53;;;;;;;;;14.75;8.50;;;;;22.78;29.92;101031.88;5002202;28;45376;-52
2022/07/29 01:32:21;;;;;;;;;8.75;7.50;;;;;22.75;29.91;101026.72;5002016;28;45309;-53
2022/07/29 01:34:52;;;;;;;;;9.75;7.75;;;;;22.76;29.88;101034.66;5001825;28;45332;-52
2022/07/29 01:37:22;;;;;;;;;6.00;6.00;;;;;22.76;29.93;101037.31;5002337;28;45329;-50
2022/07/29 01:39:49;;;;;;;;;9.25;7.25;;;;;22.75;30.21;101029.38;5001953;28;45297;-51
2022/07/29 01:42:41;;;;;;;;;8.50;8.50;;;;;22.75;29.50;101029.38;5001911;28;45326;-52
2022/07/29 01:45:24;;;;;;;;;8.00;8.00;;;;;22.73;29.72;101032.16;5002256;28;45230;-53
2022/07/29 01:48:10;;;;;;;;;6.50;6.00;;;;;22.72;29.96;101033.13;5001880;28;45225;-53
2022/07/29 01:50:47;;;;;;;;;7.00;7.00;;;;;22.70;30.06;101037.69;5011217;28;45335;-54
2022/07/29 01:53:15;;;;;;;;;7.00;7.00;;;;;22.65;29.95;101029.94;5012405;28;45412;-53
2022/07/29 01:55:44;;;;;;;;;7.00;6.00;;;;;22.66;30.39;101039.69;5000465;28;45406;-52
2022/07/29 01:58:12;;;;;;;;;7.50;6.25;;;;;22.65;30.30;101037.97;5000574;28;45380;-52
2022/07/29 02:00:40;;;;;;;;;6.25;6.25;;;;;22.60;30.16;101032.03;5000253;28;45328;-54
2022/07/29 02:03:10;;;;;;;;;5.00;5.00;;;;;22.62;29.78;101031.97;5009123;28;45314;-54
2022/07/29 02:05:39;;;;;;;;;9.00;7.50;;;;;22.61;30.04;101031.06;5001378;28;45447;-54
2022/07/29 02:08:06;;;;;;;;;6.00;6.00;;;;;22.57;30.10;101024.19;5001923;28;45388;-53
2022/07/29 02:10:33;;;;;;;;;5.50;5.50;;;;;22.58;30.02;101033.06;5001330;28;45320;-53
2022/07/29 02:13:01;;;;;;;;;7.50;7.50;;;;;22.55;30.26;101037.69;5001603;28;45470;-53
2022/07/29 02:15:30;;;;;;;;;8.00;7.75;;;;;22.54;30.19;101037.75;5001424;28;45250;-53
2022/07/29 02:18:04;;;;;;;;;7.00;6.00;;;;;22.52;30.23;101034.31;5001660;28;45449;-54
2022/07/29 02:20:31;;;;;;;;;7.25;7.25;;;;;22.49;30.43;101035.38;4999626;28;45507;-54
2022/07/29 02:22:59;;;;;;;;;8.00;6.00;;;;;22.49;30.33;101034.50;5001213;28;45337;-52
2022/07/29 02:25:26;;;;;;;;;7.75;7.75;;;;;22.47;30.24;101029.22;5000943;28;45468;-53
2022/07/29 02:27:52;;;;;;;;;11.75;6.50;;;;;22.47;30.55;101036.41;5001377;28;45261;-52
2022/07/29 02:30:21;;;;;;;;;6.75;6.75;;;;;22.45;30.29;101032.97;5001349;28;45283;-51
2022/07/29 02:32:49;;;;;;;;;8.50;6.50;;;;;22.45;30.63;101035.63;5000915;28;46142;-54
2022/07/29 02:35:16;;;;;;;;;8.25;8.00;;;;;22.43;30.51;101038.41;5000474;28;45304;-55
2022/07/29 02:37:44;;;;;;;;;8.00;6.00;;;;;22.42;30.29;101030.47;5000832;28;45246;-53
2022/07/29 02:40:12;;;;;;;;;6.50;6.50;;;;;22.40;30.88;101039.44;5001331;28;45449;-53
2022/07/29 02:42:42;;;;;;;;;9.25;6.50;;;;;22.38;30.65;101041.34;5000816;28;46282;-52
2022/07/29 02:45:08;;;;;;;;;8.75;8.00;;;;;22.36;30.70;101042.38;5001139;28;45185;-53
2022/07/29 02:47:41;;;;;;;;;7.00;7.00;;;;;22.33;30.42;101048.75;5000946;28;45241;-54
2022/07/29 02:50:12;;;;;;;;;6.00;5.75;;;;;22.33;30.67;101053.25;5006698;28;45392;-53
2022/07/29 02:52:40;;;;;;;;;8.25;6.75;;;;;;;;5015711;28;45292;-52
2022/07/29 02:55:22;;;;;;;;;8.75;7.75;;;;;22.27;30.54;101054.47;4999709;28;45385;-54
2022/07/29 02:57:57;;;;;;;;;10.50;9.50;;;;;22.26;31.06;101051.88;5001286;28;45425;-55
2022/07/29 03:00:27;;;;;;;;;11.25;9.00;;;;;22.23;30.76;101053.78;5000654;28;45578;-54
2022/07/29 03:02:55;;;;;;;;;9.25;7.75;;;;;22.21;30.77;101046.81;5008288;28;45320;-55
2022/07/29 03:05:22;;;;;;;;;8.00;7.25;;;;;22.17;30.87;101046.09;5000441;28;45353;-54
2022/07/29 03:07:54;;;;;;;;;8.25;7.50;;;;;22.15;31.13;101045.34;5001045;28;45427;-54
2022/07/29 03:10:20;;;;;;;;;8.75;8.00;;;;;22.13;31.00;101041.91;5000691;28;45313;-53
2022/07/29 03:12:47;;;;;;;;;8.50;8.50;;;;;22.11;30.98;101050.97;5000520;28;45374;-54
2022/07/29 03:15:13;;;;;;;;;9.25;8.75;;;;;22.10;30.81;101043.88;5000575;28;45337;-55
2022/07/29 03:17:39;;;;;;;;;7.75;7.75;;;;;22.07;31.26;101047.59;5000740;28;45332;-53
2022/07/29 03:20:07;;;;;;;;;7.25;7.25;;;;;22.05;31.59;101050.38;5000180;28;45257;-52
2022/07/29 03:22:38;;;;;;;;;12.00;10.25;;;;;22.05;31.11;101054.88;5000562;28;45612;-54
2022/07/29 03:25:11;;;;;;;;;7.25;7.25;;;;;22.03;31.09;101051.41;5000457;28;45466;-53
2022/07/29 03:27:36;;;;;;;;;10.50;9.25;;;;;22.00;31.46;101049.78;5000623;28;45368;-54
2022/07/29 03:30:02;;;;;;;;;7.00;7.00;;;;;22.01;31.98;101061.34;4982648;28;45338;-50
2022/07/29 03:32:27;;;;;;;;;10.25;8.50;;;;;21.99;31.98;101055.22;4999481;28;46256;-53
2022/07/29 03:34:53;;;;;;;;;7.75;6.00;;;;;22.00;32.02;101059.59;5000052;28;45325;-52
2022/07/29 03:37:18;;;;;;;;;6.75;6.75;;;;;21.99;31.76;101053.41;5000660;28;45400;-52
2022/07/29 03:39:45;;;;;;;;;9.00;8.50;;;;;21.99;31.81;101060.56;4998917;28;45540;-52
2022/07/29 03:42:15;;;;;;;;;10.00;10.00;;;;;21.98;31.65;101061.53;5000227;28;46192;-52
2022/07/29 03:44:42;;;;;;;;;10.00;10.00;;;;;21.95;31.62;101053.66;4999997;28;45345;-53
2022/07/29 03:47:10;;;;;;;;;10.00;7.75;;;;;21.94;32.09;101050.13;4999845;28;45390;-52
2022/07/29 03:49:37;;;;;;;;;9.00;8.00;;;;;21.95;32.32;101059.00;5016528;28;45975;-51
2022/07/29 03:52:03;;;;;;;;;7.75;7.25;;;;;21.94;31.79;101058.16;5019573;28;46462;-52
2022/07/29 03:54:29;;;;;;;;;11.00;9.25;;;;;21.92;32.18;101058.25;5000306;28;45396;-51
2022/07/29 03:56:59;;;;;;;;;10.75;9.00;;;;;21.92;32.05;101058.25;5000048;28;45321;-53
2022/07/29 03:59:25;;;;;;;;;11.00;10.00;;;;;21.91;32.38;101063.66;5000206;28;45211;-51
2022/07/29 04:01:52;;;;;;;;;10.00;9.00;;;;;21.91;32.37;101066.34;5006873;28;46377;-53
2022/07/29 04:04:17;;;;;;;;;10.50;9.50;;;;;21.89;32.33;101070.94;4998549;28;45311;-53
2022/07/29 04:06:45;;;;;;;;;8.25;8.00;;;;;21.88;32.23;101074.56;4998666;28;45246;-51
2022/07/29 04:09:11;;;;;;;;;11.00;8.25;;;;;21.87;32.60;101070.16;4998811;28;45433;-52
2022/07/29 04:11:39;;;;;;;;;12.00;9.50;;;;;21.86;32.76;101071.09;4999775;28;45388;-51
2022/07/29 04:14:04;;;;;;;;;9.25;9.25;;;;;21.83;33.06;101068.59;4999884;28;45243;-51
2022/07/29 04:16:30;;;;;;;;;7.50;7.00;;;;;21.82;32.93;101069.53;4999915;28;45255;-52
2022/07/29 04:18:55;;;;;;;;;9.75;9.25;;;;;21.79;33.03;101069.72;4999912;28;45488;-52
2022/07/29 04:21:20;;;;;;;;;9.50;9.50;;;;;21.79;33.05;101070.59;4999291;28;47327;-51
2022/07/29 04:23:49;;;;;;;;;9.25;9.25;;;;;21.72;32.93;101066.53;4999828;28;45250;-52
2022/07/29 04:26:15;;;;;;;;;8.50;8.00;;;;;21.75;33.32;101075.25;4998601;28;45297;-51
2022/07/29 04:28:42;;;;;;;;;10.50;8.25;;;;;21.73;33.06;101077.13;4999813;28;45390;-52
2022/07/29 04:31:07;;;;;;;;;10.50;10.00;;;;;21.68;33.19;101081.03;4998912;28;45404;-50
2022/07/29 04:33:32;;;;;;;;;7.50;7.00;;;;;21.70;33.23;101076.47;4999576;28;45348;-52
2022/07/29 04:35:58;;;;;;;;;10.50;10.00;;;;;21.68;33.53;101076.53;4999613;28;45321;-52
2022/07/29 04:38:23;;;;;;;;;12.00;9.75;;;;;21.66;33.12;101088.25;4999218;28;56141;-51
2022/07/29 04:40:49;;;;;;;;;9.25;9.25;;;;;21.66;33.52;101086.47;4999456;28;46604;-51
2022/07/29 04:43:15;;;;;;;;;8.50;8.50;;;;;21.66;33.38;101090.94;4999685;28;45263;-52
2022/07/29 04:45:40;;;;;;;;;9.75;9.00;;;;;21.64;33.98;101088.34;4999592;28;45279;-52
2022/07/29 04:48:06;;;;;;;;;9.75;9.25;;;;;21.62;33.58;101084.88;4999515;28;45214;-53
2022/07/29 04:50:32;;;;;;;;;13.00;9.25;;;;;21.63;33.64;101088.44;5007461;28;46175;-53
2022/07/29 04:52:57;;;;;;;;;11.00;9.25;;;;;21.63;33.95;101093.78;5011702;28;45213;-49
2022/07/29 04:55:23;;;;;;;;;12.25;8.50;;;;;21.61;33.63;101093.88;4999420;28;45238;-53
2022/07/29 04:57:48;;;;;;;;;10.75;9.25;;;;;21.61;33.95;101093.88;5014549;28;45560;-52
2022/07/29 05:00:14;;;;;;;;;12.50;9.00;;;;;21.61;33.51;101101.91;5001334;28;45223;-50
2022/07/29 05:02:39;;;;;;;;;11.75;10.75;;;;;21.61;33.78;101103.69;5009978;28;45352;-50
2022/07/29 05:05:05;;;;;;;;;12.25;10.00;;;;;21.56;33.60;101096.78;5002537;28;45375;-54
2022/07/29 05:07:30;;;;;;;;;12.25;9.50;;;;;21.52;33.82;101078.28;5018054;28;45472;-54
2022/07/29 05:09:56;;;;;;;;;14.75;12.25;;;;;21.58;33.63;101092.25;5017709;28;52095;-53
2022/07/29 05:12:23;;;;;;;;;13.25;11.50;;;;;21.59;34.35;101087.75;5002762;28;45442;-51
2022/07/29 05:14:48;;;;;;;;;14.50;10.75;;;;;21.59;33.72;101077.03;5002099;28;45353;-52
2022/07/29 05:17:13;;;;;;;;;8.50;8.50;;;;;21.63;34.31;101077.75;5002482;28;45305;-53
2022/07/29 05:19:39;;;;;;;;;9.00;9.00;;;;;21.62;33.69;101076.00;5002069;28;45334;-51
2022/07/29 05:22:04;;;;;;;;;9.25;8.50;;;;;21.65;34.23;101078.53;5002623;28;45360;-53
2022/07/29 05:24:30;;;;;;;;;11.75;11.00;;;;;21.66;33.80;101080.22;5001233;28;45484;-49
2022/07/29 05:26:55;;;;;;;;;11.75;10.00;;;;;21.68;33.99;101083.69;5002052;28;45260;-51
2022/07/29 05:29:20;;;;;;;;;10.75;9.00;;;;;21.69;34.56;101086.28;5002171;28;46196;-51
2022/07/29 05:31:46;;;;;;;;;9.25;8.75;;;;;21.71;34.05;101089.75;5002096;28;45261;-53
2022/07/29 05:34:11;;;;;;;;;15.75;11.00;;;;;21.74;34.61;101094.06;5002161;28;45297;-53
2022/07/29 05:36:36;;;;;;;;;9.00;9.00;;;;;21.75;34.38;101095.78;5002282;28;45242;-52
2022/07/29 05:39:02;;;;;;;;;9.50;9.00;;;;;21.77;33.99;101098.38;5002034;28;46287;-54
2022/07/29 05:41:27;;;;;;;;;9.00;8.75;;;;;21.79;34.11;101091.13;5002059;28;45286;-50
2022/07/29 05:43:52;;;;;;;;;10.50;9.00;;;;;21.78;34.42;101084.91;5002237;28;45261;-53
2022/07/29 05:46:18;;;;;;;;;12.00;9.00;;;;;21.82;34.36;101091.78;5002011;28;45240;-54
2022/07/29 05:48:43;;;;;;;;;8.00;8.00;;;;;21.85;34.79;101097.00;5017251;28;45983;-53
2022/07/29 05:51:08;;;;;;;;;12.00;8.50;;;;;21.88;34.89;101090.59;5015468;28;53204;-52
2022/07/29 05:53:34;;;;;;;;;10.50;8.25;;;;;21.91;34.66;101093.97;5009572;28;45275;-50
2022/07/29 05:56:04;;;;;;;;;12.00;9.75;;;;;21.95;34.56;101104.50;5001410;28;54852;-54
2022/07/29 05:58:29;;;;;;;;;11.75;9.25;;;;;21.98;34.49;101107.84;5001782;28;46213;-53
2022/07/29 06:00:58;;;;;;;;;9.00;9.00;;;;;22.02;34.42;101117.44;5002095;28;45281;-51
2022/07/29 06:03:24;;;;;;;;;13.75;11.00;;;;;22.05;34.36;101116.41;5023336;28;45369;-53
2022/07/29 06:05:49;;;;;;;;;10.25;10.00;;;;;22.08;34.96;101118.91;5001586;28;45343;-53
2022/07/29 06:08:15;;;;;;;;;10.00;9.00;;;;;22.13;34.99;101116.81;5001413;28;51423;-53
2022/07/29 06:10:40;;;;;;;;;9.25;8.25;;;;;22.13;34.45;101111.47;5001712;28;45385;-59
2022/07/29 06:13:06;;;;;;;;;11.25;10.25;;;;;22.19;34.84;101119.16;5001763;28;45322;-55
2022/07/29 06:15:31;;;;;;;;;9.25;7.75;;;;;22.26;34.43;101127.69;5001634;28;45451;-52
2022/07/29 06:17:56;;;;;;;;;13.75;12.00;;;;;22.29;34.41;101138.22;5001540;28;46115;-53
2022/07/29 06:20:22;;;;;;;;;11.00;10.50;;;;;22.34;34.49;101138.84;5001308;28;45442;-53
2022/07/29 06:22:47;;;;;;;;;13.25;10.50;;;;;22.36;34.59;101139.63;5001567;28;45857;-54
2022/07/29 06:25:13;;;;;;;;;11.25;11.25;;;;;22.43;34.84;101150.84;5001391;28;45326;-53
2022/07/29 06:27:38;;;;;;;;;14.25;11.00;;;;;22.46;34.38;101144.47;5001356;28;45282;-53
2022/07/29 06:30:06;;;;;;;;;14.00;13.00;;;;;22.49;34.47;101142.47;5001280;28;45419;-53
2022/07/29 06:32:32;;;;;;;;;13.00;13.00;;;;;22.53;34.68;101144.00;5016440;28;45286;-53
2022/07/29 06:34:58;;;;;;;;;9.00;8.00;;;;;22.55;34.95;101131.41;5000950;28;45493;-51
2022/07/29 06:37:23;;;;;;;;;10.50;10.50;;;;;22.62;34.47;101125.69;5001122;28;45233;-52
2022/07/29 06:40:59;;;;;;;;;11.00;10.25;;;;;22.63;34.66;101122.91;5001011;28;45248;-53
2022/07/29 06:42:33;;;;;;;;;12.50;10.00;;;;;22.69;34.51;101132.38;5001068;28;45220;-52
2022/07/29 06:44:59;;;;;;;;;10.50;10.00;;;;;22.75;34.66;101140.06;5000841;28;52996;-50
2022/07/29 06:47:24;;;;;;;;;13.25;11.75;;;;;22.78;34.57;101133.66;5000989;28;46224;-51
2022/07/29 06:49:50;;;;;;;;;14.75;13.00;;;;;22.80;34.85;101131.75;5004255;28;45347;-52
2022/07/29 06:52:15;;;;;;;;;10.25;8.75;;;;;22.81;34.91;101137.03;5019336;28;45307;-53
2022/07/29 06:54:47;;;;;;;;;10.25;8.25;;;;;22.89;34.65;101137.44;5000885;28;45310;-54
2022/07/29 06:57:12;;;;;;;;;11.75;11.75;;;;;22.92;34.39;101135.50;5000830;28;46181;-51
2022/07/29 06:59:38;;;;;;;;;11.25;11.25;;;;;22.96;34.41;101135.25;5000759;28;45191;-51
2022/07/29 07:02:03;;;;;;;;;10.25;10.25;;;;;23.00;34.50;101142.13;5008324;28;45872;-52
2022/07/29 07:04:28;;;;;;;;;11.00;11.00;;;;;23.05;34.85;101142.72;4999403;28;45235;-52
2022/07/29 07:06:55;;;;;;;;;14.50;13.25;;;;;23.11;34.68;101146.00;5000274;28;53617;-52
2022/07/29 07:09:20;;;;;;;;;11.50;10.00;;;;;23.14;34.04;101149.34;5000950;28;45433;-54
2022/07/29 07:11:46;;;;;;;;;11.75;11.75;;;;;23.17;34.35;101145.66;5000862;28;45470;-52
2022/07/29 07:14:11;;;;;;;;;12.75;12.00;;;;;23.23;34.63;101153.31;5000731;28;45420;-53
2022/07/29 07:16:36;;;;;;;;;13.50;12.00;;;;;23.29;34.41;101149.41;5000456;28;45351;-52
2022/07/29 07:19:02;;;;;;;;;11.25;11.25;;;;;23.33;34.41;101151.81;5000334;28;45320;-52
2022/07/29 07:21:27;;;;;;;;;13.00;11.25;;;;;23.40;34.33;101162.16;5015275;28;45433;-51
2022/07/29 07:23:53;;;;;;;;;11.25;11.00;;;;;23.43;34.45;101159.28;5000309;28;45682;-52
2022/07/29 07:26:18;;;;;;;;;13.50;12.25;;;;;23.45;34.18;101149.31;5000370;28;45355;-53
2022/07/29 07:28:44;;;;;;;;;12.50;12.50;;;;;23.49;34.26;101154.38;5000958;28;45341;-54
2022/07/29 07:31:10;;;;;;;;;13.75;13.00;;;;;23.57;33.93;101170.03;5000304;28;45398;-54
2022/07/29 07:33:36;;;;;;;;;13.25;11.75;;;;;23.61;34.04;101166.19;5000345;28;45486;-52
2022/07/29 07:36:01;;;;;;;;;12.50;12.50;;;;;23.68;34.25;101172.00;4999801;28;45965;-53
2022/07/29 07:38:26;;;;;;;;;15.25;11.25;;;;;23.73;34.44;101174.41;5000334;28;45256;-52
2022/07/29 07:40:52;;;;;;;;;14.25;12.00;;;;;23.78;33.80;101169.63;5000073;28;45194;-53
2022/07/29 07:43:17;;;;;;;;;13.00;11.50;;;;;23.82;34.05;101173.81;5015459;28;45328;-52
2022/07/29 07:45:42;;;;;;;;;10.50;10.50;;;;;23.86;34.04;101165.50;5015115;28;47324;-53
2022/07/29 07:48:09;;;;;;;;;9.75;9.75;;;;;23.91;33.93;101165.25;5000388;28;45452;-52
2022/07/29 07:50:35;;;;;;;;;13.50;12.25;;;;;23.93;33.74;101159.75;5009376;28;45370;-51
2022/07/29 07:53:01;;;;;;;;;10.00;10.00;;;;;23.97;33.99;101167.50;5011947;28;45486;-52
2022/07/29 07:55:27;;;;;;;;;10.50;10.50;;;;;24.03;33.68;101166.25;5000028;28;46182;-53
2022/07/29 07:57:54;;;;;;;;;12.75;12.00;;;;;24.07;33.79;101165.09;4999842;28;45376;-52
2022/07/29 08:00:20;;;;;;;;;12.00;11.75;;;;;24.10;33.99;101164.91;5000184;28;45357;-53
2022/07/29 08:02:45;;;;;;;;;11.75;11.00;;;;;24.18;34.08;101175.16;5007494;28;45507;-53
2022/07/29 08:05:12;;;;;;;;;11.00;10.00;;;;;24.23;33.92;101173.03;4999623;28;46120;-53
2022/07/29 08:07:38;;;;;;;;;15.25;12.00;;;;;24.27;33.70;101177.22;5000131;28;45238;-54
2022/07/29 08:10:04;;;;;;;;;10.25;9.75;;;;;24.33;33.73;101174.13;4999882;28;45168;-52
2022/07/29 08:12:29;;;;;;;;;13.00;11.25;;;;;24.38;33.73;101175.66;5015191;28;45467;-52
2022/07/29 08:14:54;;;;;;;;;12.25;10.75;;;;;24.42;33.78;101177.19;4999783;28;45452;-55
2022/07/29 08:17:20;;;;;;;;;11.00;9.50;;;;;24.45;33.62;101175.16;4999772;28;45345;-52
2022/07/29 08:19:47;;;;;;;;;13.33;11.00;;;;;24.49;33.73;101178.53;4999467;28;45463;-52
2022/07/29 08:22:12;;;;;;;;;13.00;11.00;;;;;24.52;33.64;101178.31;4999876;28;45308;-53
2022/07/29 08:24:44;;;;;;;;;12.25;9.75;;;;;24.58;34.03;101179.69;4999362;28;45345;-52
2022/07/29 08:27:13;;;;;;;;;12.00;12.00;;;;;24.61;33.47;101177.69;4999688;28;45224;-51
2022/07/29 08:29:38;;;;;;;;;12.25;8.75;;;;;24.65;33.58;101181.94;4999616;28;45420;-54
2022/07/29 08:32:04;;;;;;;;;10.00;10.00;;;;;24.71;33.66;101177.13;4999538;28;45293;-53
2022/07/29 08:34:30;;;;;;;;;12.50;11.00;;;;;24.75;33.18;101181.31;5000430;28;45333;-53
2022/07/29 08:36:56;;;;;;;;;10.75;10.00;;;;;24.79;33.38;101177.44;5003098;28;45230;-51
2022/07/29 08:39:23;;;;;;;;;11.00;8.75;;;;;24.84;33.15;101180.69;5003217;28;45306;-53
2022/07/29 08:41:50;;;;;;;;;10.50;7.25;;;;;24.91;33.42;101179.31;5002820;28;45456;-53
2022/07/29 08:44:17;;;;;;;;;12.50;12.50;;;;;25.00;33.33;101188.56;5001374;28;46427;-49
2022/07/29 08:46:42;;;;;;;;;10.50;10.25;;;;;25.08;33.09;101179.97;5002303;28;45257;-52
2022/07/29 08:49:08;;;;;;;;;11.50;10.00;;;;;25.15;32.92;101181.28;5002673;28;45717;-52
2022/07/29 08:51:35;;;;;;;;;10.25;10.00;;;;;25.24;32.98;101186.00;5020252;28;45254;-52
2022/07/29 08:54:01;;;;;;;;;11.75;10.00;;;;;25.33;32.84;101179.13;5005089;28;47135;-49
2022/07/29 08:56:27;;;;;;;;;14.00;12.75;;;;;25.40;32.67;101175.09;5002744;28;45449;-52
2022/07/29 08:58:53;;;;;;;;;9.00;9.00;;;;;25.47;32.38;101175.50;5001487;28;45208;-53
2022/07/29 09:01:24;;;;;;;;;10.25;9.00;;;;;25.56;32.38;101174.00;5006552;28;45310;-53
2022/07/29 09:03:49;;;;;;;;;15.25;12.25;;;;;25.63;32.84;101175.28;5004936;28;45425;-54
2022/07/29 09:06:17;;;;;;;;;10.00;9.50;;;;;25.73;32.73;101176.34;5002332;28;45250;-53
2022/07/29 09:08:44;;;;;;;;;12.75;9.75;;;;;25.82;32.36;101177.50;5017950;28;45254;-52
2022/07/29 09:11:11;;;;;;;;;9.75;8.50;;;;;25.90;32.45;101175.16;5002457;28;45385;-53
2022/07/29 09:13:36;;;;;;;;;10.75;10.75;;;;;26.00;32.27;101171.78;5002299;28;47047;-53
2022/07/29 09:16:02;;;;;;;;;10.00;9.00;;;;;26.06;32.10;101172.25;5002176;28;45400;-53
2022/07/29 09:18:38;;;;;;;;;10.25;9.00;;;;;26.16;32.44;101177.78;5017679;28;45384;-53
2022/07/29 09:24:10;;;;;;;;;16.75;13.00;;;;;26.30;31.67;101174.06;5002237;28;45368;-54
2022/07/29 09:26:41;;;;;;;;;15.75;13.00;;;;;26.37;32.25;101180.72;5000956;28;45306;-52
2022/07/29 09:29:15;;;;;;;;;13.75;13.00;;;;;26.43;32.11;101174.88;5002388;28;45411;-53
2022/07/29 09:31:42;;;;;;;;;11.00;9.50;;;;;26.49;31.85;101170.00;5001961;28;45402;-51
2022/07/29 09:34:09;;;;;;;;;14.00;12.75;;;;;26.53;31.93;101169.69;5001876;28;45459;-51
2022/07/29 09:36:45;;;;;;;;;12.50;9.25;;;;;26.58;31.25;101172.03;5002270;28;45294;-52
2022/07/29 09:39:11;;;;;;;;;7.75;7.00;;;;;26.65;31.42;101172.41;5000788;28;45309;-53
2022/07/29 09:41:53;;;;;;;;;9.00;8.25;;;;;26.71;31.58;101177.34;5000243;28;45258;-53
2022/07/29 09:44:20;;;;;;;;;7.50;7.50;;;;;26.73;31.81;101178.97;5017207;28;47250;-50
2022/07/29 09:47:06;;;;;;;;;7.50;5.75;;;;;26.81;31.79;101174.84;5001520;28;45234;-52
2022/07/29 09:49:33;;;;;;;;;9.50;7.75;;;;;26.86;31.20;101173.50;5002878;28;45241;-51
2022/07/29 09:52:00;;;;;;;;;10.00;8.75;;;;;26.91;31.63;101174.00;5019460;28;45266;-52
2022/07/29 09:54:27;;;;;;;;;9.25;6.50;;;;;27.00;31.02;101174.28;5001950;28;46309;-53
2022/07/29 09:56:54;;;;;;;;;9.00;6.75;;;;;27.07;31.42;101183.63;5001932;28;45331;-51
2022/07/29 09:59:26;;;;;;;;;7.00;6.00;;;;;27.14;30.97;101167.81;5001976;28;45259;-52
2022/07/29 10:01:51;;;;;;;;;10.00;6.25;;;;;27.20;30.86;101170.91;5008486;28;45467;-53
2022/07/29 10:04:18;;;;;;;;;7.00;7.00;;;;;27.30;31.19;101172.88;5001437;28;45336;-52
2022/07/29 10:07:01;;;;;;;;;7.00;5.75;;;;;27.39;31.38;101169.44;5016530;28;45402;-53
2022/07/29 10:09:27;;;;;;;;;5.00;5.00;;;;;27.48;31.12;101163.34;5001789;28;45361;-52
2022/07/29 10:12:23;;;;;;;;;7.50;7.00;;;;;27.57;31.15;101161.75;5001609;28;45291;-54
2022/07/29 10:14:49;;;;;;;;;7.50;7.50;;;;;27.67;31.05;101167.28;4984674;28;46251;-54
2022/07/29 10:17:15;;;;;;;;;7.75;7.75;;;;;27.74;30.66;101158.56;5001411;28;45281;-53
2022/07/29 10:19:42;;;;;;;;;8.00;7.75;;;;;27.85;30.21;101165.81;5016427;28;45256;-52
2022/07/29 10:22:09;;;;;;;;;9.00;6.50;;;;;27.93;30.43;101164.34;5001459;28;45149;-53
2022/07/29 10:24:37;;;;;;;;;5.75;4.50;;;;;28.04;30.28;101161.66;5001318;28;45580;-54
2022/07/29 10:27:05;;;;;;;;;7.50;6.75;;;;;28.14;30.13;101165.31;5001381;28;45308;-52
2022/07/29 10:29:31;;;;;;;;;6.00;6.00;;;;;28.26;30.28;101167.97;5001448;28;45238;-53
2022/07/29 10:32:15;;;;;;;;;6.75;6.50;;;;;28.40;29.84;101177.63;5001192;28;45228;-52
2022/07/29 10:35:08;;;;;;;;;6.25;6.25;;;;;28.53;30.14;101171.06;5000966;28;45485;-52
2022/07/29 10:38:03;;;;;;;;;6.25;5.25;;;;;28.68;29.87;101168.13;5001061;28;45528;-53
2022/07/29 10:43:35;;;;;;;;;5.50;5.50;;;;;28.95;29.46;101172.16;5001126;28;45237;-52
2022/07/29 10:46:02;;;;;;;;;5.00;5.00;;;;;29.15;29.83;101171.28;5000747;28;47674;-52
2022/07/29 10:48:27;;;;;;;;;6.00;4.50;;;;;29.46;29.83;101173.19;5001093;28;45287;-53
2022/07/29 10:51:02;;;;;;;;;8.75;8.00;;;;;29.86;30.19;101171.50;5024297;28;45182;-52
2022/07/29 10:53:48;;;;;;;;;5.00;5.00;;;;;30.43;30.55;101175.34;5012186;28;45388;-52
2022/07/29 10:56:43;;;;;;;;;6.75;5.75;;;;;31.03;30.38;101176.22;5020058;28;46309;-53
2022/07/29 10:59:20;;;;;;;;;6.00;4.25;;;;;31.54;29.73;101174.97;5007546;28;45241;-51
2022/07/29 11:01:47;;;;;;;;;5.50;5.50;;;;;31.99;29.73;101186.94;5018984;28;45453;-52
2022/07/29 11:04:12;;;;;;;;;7.25;4.50;;;;;32.38;29.61;101173.13;5000682;28;45392;-53
2022/07/29 11:06:58;;;;;;;;;4.00;4.00;;;;;32.81;29.05;101186.13;5000264;28;45254;-53
2022/07/29 11:09:23;;;;;;;;;5.25;5.25;;;;;33.16;28.79;101190.63;4986468;28;45251;-52
2022/07/29 11:11:49;;;;;;;;;4.25;4.25;;;;;33.53;28.77;101180.50;5000620;28;45338;-53
2022/07/29 11:14:15;;;;;;;;;6.25;4.75;;;;;33.95;28.95;101178.84;5000739;28;45396;-54
2022/07/29 11:17:04;;;;;;;;;8.00;4.75;;;;;34.42;28.24;101175.56;4998995;28;47894;-55
2022/07/29 11:19:30;;;;;;;;;8.00;6.50;;;;;34.88;28.71;101188.75;5000112;28;45400;-54
2022/07/29 11:21:56;;;;;;;;;7.50;7.50;;;;;35.38;28.48;101192.28;4999859;28;45436;-53
2022/07/29 11:24:30;;;;;;;;;7.00;6.75;;;;;35.85;27.97;101181.53;4999288;28;45338;-49
2022/07/29 11:27:09;;;;;;;;;5.75;4.00;;;;;36.30;27.28;101179.09;5000321;28;46177;-54
2022/07/29 11:29:49;;;;;;;;;6.25;5.75;;;;;36.62;26.70;101179.91;5015474;28;45259;-52
2022/07/29 11:32:17;;;;;;;;;5.75;5.25;;;;;36.89;27.28;101197.66;5000360;28;45263;-54